sensor_id;sensor_type;location;lat;lon;timestamp;P1;durP1;ratioP1;P2;durP2;ratioP2
22843;SDS011;11588;51.178;4.852;2023-07-20T00:02:01;3.28;;;1.15;;
22843;SDS011;11588;51.178;4.852;2023-07-20T00:04:29;3.80;;;1.48;;
22843;SDS011;11588;51.178;4.852;2023-07-20T00:06:55;5.22;;;1.38;;
22843;SDS011;11588;51.178;4.852;2023-07-20T00:09:22;1.80;;;0.73;;
22843;SDS011;11588;51.178;4.852;2023-07-20T00:11:49;2.33;;;0.98;;
22843;SDS011;11588;51.178;4.852;2023-07-20T00:14:16;2.22;;;1.05;;
22843;SDS011;11588;51.178;4.852;2023-07-20T00:16:43;3.60;;;0.90;;
22843;SDS011;11588;51.178;4.852;2023-07-20T00:19:10;5.07;;;1.15;;
22843;SDS011;11588;51.178;4.852;2023-07-20T00:21:37;1.45;;;0.70;;
22843;SDS011;11588;51.178;4.852;2023-07-20T00:24:09;1.15;;;0.80;;
22843;SDS011;11588;51.178;4.852;2023-07-20T00:26:36;2.70;;;1.10;;
22843;SDS011;11588;51.178;4.852;2023-07-20T00:29:02;5.53;;;1.13;;
22843;SDS011;11588;51.178;4.852;2023-07-20T00:31:29;1.85;;;0.80;;
22843;SDS011;11588;51.178;4.852;2023-07-20T00:33:56;0.77;;;0.70;;
22843;SDS011;11588;51.178;4.852;2023-07-20T00:36:22;1.75;;;0.70;;
22843;SDS011;11588;51.178;4.852;2023-07-20T00:38:49;1.92;;;0.85;;
22843;SDS011;11588;51.178;4.852;2023-07-20T00:41:16;2.83;;;0.90;;
22843;SDS011;11588;51.178;4.852;2023-07-20T00:43:42;0.63;;;0.47;;
22843;SDS011;11588;51.178;4.852;2023-07-20T00:46:09;1.50;;;0.90;;
22843;SDS011;11588;51.178;4.852;2023-07-20T00:48:35;2.03;;;0.95;;
22843;SDS011;11588;51.178;4.852;2023-07-20T00:51:02;2.05;;;0.73;;
22843;SDS011;11588;51.178;4.852;2023-07-20T00:53:29;1.52;;;0.80;;
22843;SDS011;11588;51.178;4.852;2023-07-20T00:55:56;1.25;;;0.77;;
22843;SDS011;11588;51.178;4.852;2023-07-20T00:58:23;3.90;;;1.00;;
22843;SDS011;11588;51.178;4.852;2023-07-20T01:00:50;0.98;;;0.80;;
22843;SDS011;11588;51.178;4.852;2023-07-20T01:03:17;3.45;;;1.42;;
22843;SDS011;11588;51.178;4.852;2023-07-20T01:11:16;1.70;;;1.17;;
22843;SDS011;11588;51.178;4.852;2023-07-20T01:13:44;1.45;;;0.95;;
22843;SDS011;11588;51.178;4.852;2023-07-20T01:16:10;0.95;;;0.77;;
22843;SDS011;11588;51.178;4.852;2023-07-20T01:18:37;1.52;;;0.65;;
22843;SDS011;11588;51.178;4.852;2023-07-20T01:21:09;1.08;;;0.70;;
22843;SDS011;11588;51.178;4.852;2023-07-20T01:23:44;4.60;;;1.30;;
22843;SDS011;11588;51.178;4.852;2023-07-20T01:26:23;2.63;;;0.80;;
22843;SDS011;11588;51.178;4.852;2023-07-20T01:29:00;6.68;;;1.55;;
22843;SDS011;11588;51.178;4.852;2023-07-20T01:31:35;2.80;;;0.85;;
22843;SDS011;11588;51.178;4.852;2023-07-20T01:34:03;2.20;;;1.13;;
22843;SDS011;11588;51.178;4.852;2023-07-20T01:36:33;10.32;;;1.50;;
22843;SDS011;11588;51.178;4.852;2023-07-20T01:39:00;4.07;;;1.23;;
22843;SDS011;11588;51.178;4.852;2023-07-20T01:41:28;1.90;;;1.20;;
22843;SDS011;11588;51.178;4.852;2023-07-20T01:43:57;2.22;;;1.08;;
22843;SDS011;11588;51.178;4.852;2023-07-20T01:46:27;4.25;;;1.15;;
22843;SDS011;11588;51.178;4.852;2023-07-20T01:48:53;3.05;;;1.33;;
22843;SDS011;11588;51.178;4.852;2023-07-20T01:51:20;2.28;;;1.35;;
22843;SDS011;11588;51.178;4.852;2023-07-20T01:53:47;2.17;;;1.23;;
22843;SDS011;11588;51.178;4.852;2023-07-20T01:56:14;3.35;;;1.60;;
22843;SDS011;11588;51.178;4.852;2023-07-20T01:58:40;1.98;;;1.13;;
22843;SDS011;11588;51.178;4.852;2023-07-20T02:01:07;3.20;;;1.77;;
22843;SDS011;11588;51.178;4.852;2023-07-20T02:03:36;2.38;;;1.35;;
22843;SDS011;11588;51.178;4.852;2023-07-20T02:06:03;2.53;;;1.70;;
22843;SDS011;11588;51.178;4.852;2023-07-20T02:08:30;2.60;;;1.40;;
22843;SDS011;11588;51.178;4.852;2023-07-20T02:10:57;2.47;;;1.38;;
22843;SDS011;11588;51.178;4.852;2023-07-20T02:13:24;3.58;;;1.65;;
22843;SDS011;11588;51.178;4.852;2023-07-20T02:15:50;5.57;;;2.20;;
22843;SDS011;11588;51.178;4.852;2023-07-20T02:18:17;4.50;;;1.58;;
22843;SDS011;11588;51.178;4.852;2023-07-20T02:20:43;1.40;;;0.95;;
22843;SDS011;11588;51.178;4.852;2023-07-20T02:23:10;7.28;;;1.52;;
22843;SDS011;11588;51.178;4.852;2023-07-20T02:25:37;2.72;;;1.80;;
22843;SDS011;11588;51.178;4.852;2023-07-20T02:28:04;3.70;;;1.52;;
22843;SDS011;11588;51.178;4.852;2023-07-20T02:30:31;2.55;;;1.80;;
22843;SDS011;11588;51.178;4.852;2023-07-20T02:32:58;2.45;;;1.73;;
22843;SDS011;11588;51.178;4.852;2023-07-20T02:35:25;2.90;;;1.70;;
22843;SDS011;11588;51.178;4.852;2023-07-20T02:37:52;2.15;;;1.65;;
22843;SDS011;11588;51.178;4.852;2023-07-20T02:40:19;3.08;;;1.95;;
22843;SDS011;11588;51.178;4.852;2023-07-20T02:42:46;2.85;;;1.80;;
22843;SDS011;11588;51.178;4.852;2023-07-20T02:45:13;8.73;;;2.50;;
22843;SDS011;11588;51.178;4.852;2023-07-20T02:47:39;3.42;;;1.90;;
22843;SDS011;11588;51.178;4.852;2023-07-20T02:50:07;5.13;;;1.98;;
22843;SDS011;11588;51.178;4.852;2023-07-20T02:52:34;3.13;;;1.85;;
22843;SDS011;11588;51.178;4.852;2023-07-20T02:55:00;2.92;;;1.65;;
22843;SDS011;11588;51.178;4.852;2023-07-20T02:57:27;5.90;;;2.40;;
22843;SDS011;11588;51.178;4.852;2023-07-20T02:59:53;4.07;;;2.33;;
22843;SDS011;11588;51.178;4.852;2023-07-20T03:02:21;2.33;;;1.77;;
22843;SDS011;11588;51.178;4.852;2023-07-20T03:04:47;3.55;;;1.95;;
22843;SDS011;11588;51.178;4.852;2023-07-20T03:07:14;4.95;;;1.85;;
22843;SDS011;11588;51.178;4.852;2023-07-20T03:09:41;3.28;;;1.88;;
22843;SDS011;11588;51.178;4.852;2023-07-20T03:12:08;3.50;;;1.98;;
22843;SDS011;11588;51.178;4.852;2023-07-20T03:14:34;3.05;;;1.95;;
22843;SDS011;11588;51.178;4.852;2023-07-20T03:17:01;4.07;;;1.60;;
22843;SDS011;11588;51.178;4.852;2023-07-20T03:19:28;2.63;;;1.60;;
22843;SDS011;11588;51.178;4.852;2023-07-20T03:21:54;3.47;;;1.60;;
22843;SDS011;11588;51.178;4.852;2023-07-20T03:24:21;5.22;;;1.70;;
22843;SDS011;11588;51.178;4.852;2023-07-20T03:26:48;3.08;;;1.60;;
22843;SDS011;11588;51.178;4.852;2023-07-20T03:29:15;3.30;;;2.00;;
22843;SDS011;11588;51.178;4.852;2023-07-20T03:31:42;2.97;;;1.30;;
22843;SDS011;11588;51.178;4.852;2023-07-20T03:34:09;2.22;;;1.20;;
22843;SDS011;11588;51.178;4.852;2023-07-20T03:36:35;3.60;;;1.40;;
22843;SDS011;11588;51.178;4.852;2023-07-20T03:39:02;2.28;;;1.40;;
22843;SDS011;11588;51.178;4.852;2023-07-20T03:41:29;2.33;;;1.33;;
22843;SDS011;11588;51.178;4.852;2023-07-20T03:43:56;2.53;;;1.58;;
22843;SDS011;11588;51.178;4.852;2023-07-20T03:46:23;3.15;;;1.75;;
22843;SDS011;11588;51.178;4.852;2023-07-20T03:48:52;3.25;;;1.67;;
22843;SDS011;11588;51.178;4.852;2023-07-20T03:51:19;2.35;;;1.23;;
22843;SDS011;11588;51.178;4.852;2023-07-20T03:53:46;2.38;;;1.55;;
22843;SDS011;11588;51.178;4.852;2023-07-20T03:56:13;2.33;;;1.30;;
22843;SDS011;11588;51.178;4.852;2023-07-20T03:58:39;1.75;;;1.20;;
22843;SDS011;11588;51.178;4.852;2023-07-20T04:01:07;1.95;;;1.60;;
22843;SDS011;11588;51.178;4.852;2023-07-20T04:03:34;3.35;;;1.60;;
22843;SDS011;11588;51.178;4.852;2023-07-20T04:06:02;4.82;;;1.98;;
22843;SDS011;11588;51.178;4.852;2023-07-20T04:08:28;4.00;;;1.65;;
22843;SDS011;11588;51.178;4.852;2023-07-20T04:10:54;3.58;;;2.35;;
22843;SDS011;11588;51.178;4.852;2023-07-20T04:13:19;4.07;;;2.38;;
22843;SDS011;11588;51.178;4.852;2023-07-20T04:15:45;4.97;;;2.20;;
22843;SDS011;11588;51.178;4.852;2023-07-20T04:18:12;6.30;;;2.22;;
22843;SDS011;11588;51.178;4.852;2023-07-20T04:20:39;3.15;;;1.90;;
22843;SDS011;11588;51.178;4.852;2023-07-20T04:23:05;2.88;;;1.67;;
22843;SDS011;11588;51.178;4.852;2023-07-20T04:25:32;4.03;;;1.70;;
22843;SDS011;11588;51.178;4.852;2023-07-20T04:28:11;4.40;;;2.08;;
22843;SDS011;11588;51.178;4.852;2023-07-20T04:30:38;3.95;;;2.35;;
22843;SDS011;11588;51.178;4.852;2023-07-20T04:33:06;2.75;;;1.85;;
22843;SDS011;11588;51.178;4.852;2023-07-20T04:38:10;2.97;;;1.42;;
22843;SDS011;11588;51.178;4.852;2023-07-20T04:40:36;2.10;;;1.40;;
22843;SDS011;11588;51.178;4.852;2023-07-20T04:43:02;2.80;;;1.80;;
22843;SDS011;11588;51.178;4.852;2023-07-20T04:45:29;3.88;;;1.83;;
22843;SDS011;11588;51.178;4.852;2023-07-20T04:47:56;2.30;;;1.48;;
22843;SDS011;11588;51.178;4.852;2023-07-20T04:50:23;5.57;;;1.73;;
22843;SDS011;11588;51.178;4.852;2023-07-20T04:52:53;2.67;;;1.55;;
22843;SDS011;11588;51.178;4.852;2023-07-20T04:55:18;2.63;;;1.55;;
22843;SDS011;11588;51.178;4.852;2023-07-20T04:57:45;2.67;;;1.63;;
22843;SDS011;11588;51.178;4.852;2023-07-20T05:00:12;3.00;;;1.73;;
22843;SDS011;11588;51.178;4.852;2023-07-20T05:02:39;2.22;;;1.40;;
22843;SDS011;11588;51.178;4.852;2023-07-20T05:05:06;1.98;;;1.25;;
22843;SDS011;11588;51.178;4.852;2023-07-20T05:07:32;2.35;;;1.02;;
22843;SDS011;11588;51.178;4.852;2023-07-20T05:09:59;3.03;;;1.80;;
22843;SDS011;11588;51.178;4.852;2023-07-20T05:12:25;1.23;;;1.10;;
22843;SDS011;11588;51.178;4.852;2023-07-20T05:14:52;2.05;;;1.00;;
22843;SDS011;11588;51.178;4.852;2023-07-20T05:17:18;2.53;;;1.45;;
22843;SDS011;11588;51.178;4.852;2023-07-20T05:19:45;2.15;;;1.50;;
22843;SDS011;11588;51.178;4.852;2023-07-20T05:22:13;3.78;;;1.58;;
22843;SDS011;11588;51.178;4.852;2023-07-20T05:24:39;3.47;;;1.83;;
22843;SDS011;11588;51.178;4.852;2023-07-20T05:27:05;3.25;;;1.50;;
22843;SDS011;11588;51.178;4.852;2023-07-20T05:29:32;3.35;;;1.52;;
22843;SDS011;11588;51.178;4.852;2023-07-20T05:31:59;1.45;;;1.00;;
22843;SDS011;11588;51.178;4.852;2023-07-20T05:34:25;2.85;;;1.08;;
22843;SDS011;11588;51.178;4.852;2023-07-20T05:36:52;2.60;;;1.00;;
22843;SDS011;11588;51.178;4.852;2023-07-20T05:39:18;1.83;;;1.20;;
22843;SDS011;11588;51.178;4.852;2023-07-20T05:41:45;1.60;;;1.10;;
22843;SDS011;11588;51.178;4.852;2023-07-20T05:44:12;5.25;;;1.17;;
22843;SDS011;11588;51.178;4.852;2023-07-20T05:46:38;2.80;;;1.52;;
22843;SDS011;11588;51.178;4.852;2023-07-20T05:49:05;1.52;;;1.00;;
22843;SDS011;11588;51.178;4.852;2023-07-20T05:51:31;1.50;;;1.13;;
22843;SDS011;11588;51.178;4.852;2023-07-20T05:53:58;0.80;;;0.65;;
22843;SDS011;11588;51.178;4.852;2023-07-20T05:56:24;0.90;;;0.70;;
22843;SDS011;11588;51.178;4.852;2023-07-20T05:58:51;0.70;;;0.50;;
22843;SDS011;11588;51.178;4.852;2023-07-20T06:01:17;2.58;;;0.57;;
22843;SDS011;11588;51.178;4.852;2023-07-20T06:03:45;1.17;;;0.80;;
22843;SDS011;11588;51.178;4.852;2023-07-20T06:06:11;0.77;;;0.75;;
22843;SDS011;11588;51.178;4.852;2023-07-20T06:08:38;0.80;;;0.50;;
22843;SDS011;11588;51.178;4.852;2023-07-20T06:11:05;0.77;;;0.60;;
22843;SDS011;11588;51.178;4.852;2023-07-20T06:13:31;0.57;;;0.57;;
22843;SDS011;11588;51.178;4.852;2023-07-20T06:15:58;0.52;;;0.52;;
22843;SDS011;11588;51.178;4.852;2023-07-20T06:18:25;0.60;;;0.40;;
22843;SDS011;11588;51.178;4.852;2023-07-20T06:20:51;0.52;;;0.38;;
22843;SDS011;11588;51.178;4.852;2023-07-20T06:23:18;0.75;;;0.40;;
22843;SDS011;11588;51.178;4.852;2023-07-20T06:25:45;1.13;;;0.50;;
22843;SDS011;11588;51.178;4.852;2023-07-20T06:28:12;0.60;;;0.45;;
22843;SDS011;11588;51.178;4.852;2023-07-20T06:30:39;1.63;;;0.82;;
22843;SDS011;11588;51.178;4.852;2023-07-20T06:33:06;0.85;;;0.65;;
22843;SDS011;11588;51.178;4.852;2023-07-20T06:35:33;0.93;;;0.80;;
22843;SDS011;11588;51.178;4.852;2023-07-20T06:38:00;0.77;;;0.65;;
22843;SDS011;11588;51.178;4.852;2023-07-20T06:40:27;0.65;;;0.50;;
22843;SDS011;11588;51.178;4.852;2023-07-20T06:42:53;0.50;;;0.40;;
22843;SDS011;11588;51.178;4.852;2023-07-20T06:45:20;0.60;;;0.50;;
22843;SDS011;11588;51.178;4.852;2023-07-20T06:47:46;1.52;;;0.50;;
22843;SDS011;11588;51.178;4.852;2023-07-20T06:50:13;0.85;;;0.55;;
22843;SDS011;11588;51.178;4.852;2023-07-20T06:52:40;0.98;;;0.50;;
22843;SDS011;11588;51.178;4.852;2023-07-20T06:55:07;1.45;;;0.47;;
22843;SDS011;11588;51.178;4.852;2023-07-20T06:57:34;1.10;;;0.70;;
22843;SDS011;11588;51.178;4.852;2023-07-20T07:00:00;0.80;;;0.47;;
22843;SDS011;11588;51.178;4.852;2023-07-20T07:02:27;1.23;;;0.73;;
22843;SDS011;11588;51.178;4.852;2023-07-20T07:04:53;1.33;;;1.00;;
22843;SDS011;11588;51.178;4.852;2023-07-20T07:07:21;2.15;;;0.80;;
22843;SDS011;11588;51.178;4.852;2023-07-20T07:09:48;1.58;;;0.57;;
22843;SDS011;11588;51.178;4.852;2023-07-20T07:12:15;0.90;;;0.70;;
22843;SDS011;11588;51.178;4.852;2023-07-20T07:14:41;2.13;;;1.00;;
22843;SDS011;11588;51.178;4.852;2023-07-20T07:17:08;2.40;;;1.08;;
22843;SDS011;11588;51.178;4.852;2023-07-20T07:19:34;1.25;;;0.70;;
22843;SDS011;11588;51.178;4.852;2023-07-20T07:22:02;1.50;;;0.70;;
22843;SDS011;11588;51.178;4.852;2023-07-20T07:24:29;0.70;;;0.50;;
22843;SDS011;11588;51.178;4.852;2023-07-20T07:27:02;1.15;;;0.90;;
22843;SDS011;11588;51.178;4.852;2023-07-20T07:29:28;1.08;;;0.70;;
22843;SDS011;11588;51.178;4.852;2023-07-20T07:31:55;0.93;;;0.43;;
22843;SDS011;11588;51.178;4.852;2023-07-20T07:34:22;1.38;;;0.68;;
22843;SDS011;11588;51.178;4.852;2023-07-20T07:36:48;0.80;;;0.60;;
22843;SDS011;11588;51.178;4.852;2023-07-20T07:39:16;0.98;;;0.70;;
22843;SDS011;11588;51.178;4.852;2023-07-20T07:41:42;1.17;;;0.50;;
22843;SDS011;11588;51.178;4.852;2023-07-20T07:44:09;0.55;;;0.30;;
22843;SDS011;11588;51.178;4.852;2023-07-20T07:46:35;0.35;;;0.25;;
22843;SDS011;11588;51.178;4.852;2023-07-20T07:49:02;0.50;;;0.43;;
22843;SDS011;11588;51.178;4.852;2023-07-20T07:51:29;1.20;;;0.77;;
22843;SDS011;11588;51.178;4.852;2023-07-20T07:53:55;2.33;;;0.70;;
22843;SDS011;11588;51.178;4.852;2023-07-20T07:56:22;0.65;;;0.63;;
22843;SDS011;11588;51.178;4.852;2023-07-20T07:58:49;0.88;;;0.50;;
22843;SDS011;11588;51.178;4.852;2023-07-20T08:01:17;0.95;;;0.57;;
22843;SDS011;11588;51.178;4.852;2023-07-20T08:03:45;0.70;;;0.50;;
22843;SDS011;11588;51.178;4.852;2023-07-20T08:06:13;0.40;;;0.40;;
22843;SDS011;11588;51.178;4.852;2023-07-20T08:08:40;0.55;;;0.40;;
22843;SDS011;11588;51.178;4.852;2023-07-20T08:11:07;1.95;;;0.60;;
22843;SDS011;11588;51.178;4.852;2023-07-20T08:13:34;0.70;;;0.50;;
22843;SDS011;11588;51.178;4.852;2023-07-20T08:16:01;1.33;;;0.80;;
22843;SDS011;11588;51.178;4.852;2023-07-20T08:18:28;0.85;;;0.70;;
22843;SDS011;11588;51.178;4.852;2023-07-20T08:20:55;0.98;;;0.75;;
22843;SDS011;11588;51.178;4.852;2023-07-20T08:23:21;0.60;;;0.60;;
22843;SDS011;11588;51.178;4.852;2023-07-20T08:25:48;1.08;;;0.80;;
22843;SDS011;11588;51.178;4.852;2023-07-20T08:28:15;1.02;;;0.90;;
22843;SDS011;11588;51.178;4.852;2023-07-20T08:30:44;0.95;;;0.88;;
22843;SDS011;11588;51.178;4.852;2023-07-20T08:33:12;1.27;;;1.00;;
22843;SDS011;11588;51.178;4.852;2023-07-20T08:35:39;1.50;;;0.50;;
22843;SDS011;11588;51.178;4.852;2023-07-20T08:38:07;1.15;;;1.05;;
22843;SDS011;11588;51.178;4.852;2023-07-20T08:40:38;4.10;;;1.60;;
22843;SDS011;11588;51.178;4.852;2023-07-20T08:43:08;0.80;;;0.80;;
22843;SDS011;11588;51.178;4.852;2023-07-20T08:45:34;1.23;;;1.13;;
22843;SDS011;11588;51.178;4.852;2023-07-20T08:48:04;1.30;;;1.20;;
22843;SDS011;11588;51.178;4.852;2023-07-20T08:50:31;1.00;;;0.90;;
22843;SDS011;11588;51.178;4.852;2023-07-20T08:52:58;1.60;;;1.08;;
22843;SDS011;11588;51.178;4.852;2023-07-20T08:55:25;1.30;;;1.00;;
22843;SDS011;11588;51.178;4.852;2023-07-20T08:57:52;2.95;;;0.70;;
22843;SDS011;11588;51.178;4.852;2023-07-20T09:00:21;0.88;;;0.80;;
22843;SDS011;11588;51.178;4.852;2023-07-20T09:02:49;0.88;;;0.75;;
22843;SDS011;11588;51.178;4.852;2023-07-20T09:05:17;1.42;;;1.00;;
22843;SDS011;11588;51.178;4.852;2023-07-20T09:07:44;1.15;;;1.05;;
22843;SDS011;11588;51.178;4.852;2023-07-20T09:10:10;1.02;;;0.93;;
22843;SDS011;11588;51.178;4.852;2023-07-20T09:12:38;0.82;;;0.73;;
22843;SDS011;11588;51.178;4.852;2023-07-20T09:15:05;1.08;;;0.90;;
22843;SDS011;11588;51.178;4.852;2023-07-20T09:17:32;1.27;;;1.08;;
22843;SDS011;11588;51.178;4.852;2023-07-20T09:20:01;1.83;;;0.90;;
22843;SDS011;11588;51.178;4.852;2023-07-20T09:22:29;1.23;;;1.08;;
22843;SDS011;11588;51.178;4.852;2023-07-20T09:24:57;4.63;;;1.23;;
22843;SDS011;11588;51.178;4.852;2023-07-20T09:29:54;1.20;;;1.10;;
22843;SDS011;11588;51.178;4.852;2023-07-20T09:32:22;1.48;;;1.02;;
22843;SDS011;11588;51.178;4.852;2023-07-20T09:34:49;1.25;;;0.70;;
22843;SDS011;11588;51.178;4.852;2023-07-20T09:39:47;1.15;;;0.93;;
22843;SDS011;11588;51.178;4.852;2023-07-20T09:42:15;0.85;;;0.70;;
22843;SDS011;11588;51.178;4.852;2023-07-20T09:44:43;1.02;;;0.80;;
22843;SDS011;11588;51.178;4.852;2023-07-20T09:47:10;1.35;;;0.80;;
22843;SDS011;11588;51.178;4.852;2023-07-20T09:54:37;0.85;;;0.70;;
22843;SDS011;11588;51.178;4.852;2023-07-20T09:57:06;0.70;;;0.70;;
22843;SDS011;11588;51.178;4.852;2023-07-20T09:59:34;0.80;;;0.70;;
22843;SDS011;11588;51.178;4.852;2023-07-20T10:02:01;0.55;;;0.55;;
22843;SDS011;11588;51.178;4.852;2023-07-20T10:04:29;0.77;;;0.60;;
22843;SDS011;11588;51.178;4.852;2023-07-20T10:06:56;0.40;;;0.38;;
22843;SDS011;11588;51.178;4.852;2023-07-20T10:09:27;0.82;;;0.40;;
22843;SDS011;11588;51.178;4.852;2023-07-20T10:11:55;0.60;;;0.30;;
22843;SDS011;11588;51.178;4.852;2023-07-20T10:14:25;0.20;;;0.20;;
22843;SDS011;11588;51.178;4.852;2023-07-20T10:16:57;0.32;;;0.30;;
22843;SDS011;11588;51.178;4.852;2023-07-20T10:19:25;0.52;;;0.38;;
22843;SDS011;11588;51.178;4.852;2023-07-20T10:21:56;0.20;;;0.20;;
22843;SDS011;11588;51.178;4.852;2023-07-20T10:24:24;0.45;;;0.45;;
22843;SDS011;11588;51.178;4.852;2023-07-20T10:26:51;0.50;;;0.40;;
22843;SDS011;11588;51.178;4.852;2023-07-20T10:29:17;0.30;;;0.17;;
22843;SDS011;11588;51.178;4.852;2023-07-20T10:31:44;0.50;;;0.30;;
22843;SDS011;11588;51.178;4.852;2023-07-20T10:34:11;0.22;;;0.22;;
22843;SDS011;11588;51.178;4.852;2023-07-20T10:39:08;0.40;;;0.10;;
22843;SDS011;11588;51.178;4.852;2023-07-20T10:41:49;0.22;;;0.10;;
22843;SDS011;11588;51.178;4.852;2023-07-20T10:44:19;0.10;;;0.10;;
22843;SDS011;11588;51.178;4.852;2023-07-20T10:46:48;0.28;;;0.10;;
22843;SDS011;11588;51.178;4.852;2023-07-20T10:49:15;0.20;;;0.20;;
22843;SDS011;11588;51.178;4.852;2023-07-20T10:51:45;0.20;;;0.10;;
22843;SDS011;11588;51.178;4.852;2023-07-20T10:56:42;0.30;;;0.20;;
22843;SDS011;11588;51.178;4.852;2023-07-20T11:01:39;0.40;;;0.35;;
22843;SDS011;11588;51.178;4.852;2023-07-20T11:04:08;1.02;;;0.10;;
22843;SDS011;11588;51.178;4.852;2023-07-20T11:06:34;0.38;;;0.10;;
22843;SDS011;11588;51.178;4.852;2023-07-20T11:09:05;0.20;;;0.20;;
22843;SDS011;11588;51.178;4.852;2023-07-20T11:11:33;0.15;;;0.10;;
22843;SDS011;11588;51.178;4.852;2023-07-20T11:14:02;0.30;;;0.20;;
22843;SDS011;11588;51.178;4.852;2023-07-20T11:18:58;0.10;;;0.10;;
22843;SDS011;11588;51.178;4.852;2023-07-20T11:21:25;0.10;;;0.00;;
22843;SDS011;11588;51.178;4.852;2023-07-20T11:23:52;0.10;;;0.05;;
22843;SDS011;11588;51.178;4.852;2023-07-20T11:26:20;0.75;;;0.35;;
22843;SDS011;11588;51.178;4.852;2023-07-20T11:31:16;0.30;;;0.10;;
22843;SDS011;11588;51.178;4.852;2023-07-20T11:33:42;0.00;;;0.00;;
22843;SDS011;11588;51.178;4.852;2023-07-20T11:36:09;0.55;;;0.20;;
22843;SDS011;11588;51.178;4.852;2023-07-20T11:38:36;0.40;;;0.30;;
22843;SDS011;11588;51.178;4.852;2023-07-20T11:41:03;0.15;;;0.15;;
22843;SDS011;11588;51.178;4.852;2023-07-20T11:43:30;0.68;;;0.20;;
22843;SDS011;11588;51.178;4.852;2023-07-20T11:45:56;0.10;;;0.10;;
22843;SDS011;11588;51.178;4.852;2023-07-20T11:48:23;0.22;;;0.20;;
22843;SDS011;11588;51.178;4.852;2023-07-20T11:50:49;0.20;;;0.20;;
22843;SDS011;11588;51.178;4.852;2023-07-20T11:53:16;0.35;;;0.15;;
22843;SDS011;11588;51.178;4.852;2023-07-20T11:55:43;0.17;;;0.17;;
22843;SDS011;11588;51.178;4.852;2023-07-20T11:58:09;0.28;;;0.28;;
22843;SDS011;11588;51.178;4.852;2023-07-20T12:00:37;0.30;;;0.30;;
22843;SDS011;11588;51.178;4.852;2023-07-20T12:03:05;0.68;;;0.20;;
22843;SDS011;11588;51.178;4.852;2023-07-20T12:05:33;0.38;;;0.20;;
22843;SDS011;11588;51.178;4.852;2023-07-20T12:08:00;0.47;;;0.20;;
22843;SDS011;11588;51.178;4.852;2023-07-20T12:10:27;0.52;;;0.20;;
22843;SDS011;11588;51.178;4.852;2023-07-20T12:12:54;1.45;;;0.30;;
22843;SDS011;11588;51.178;4.852;2023-07-20T12:17:49;0.20;;;0.20;;
22843;SDS011;11588;51.178;4.852;2023-07-20T12:22:46;0.32;;;0.30;;
22843;SDS011;11588;51.178;4.852;2023-07-20T12:25:15;0.60;;;0.30;;
22843;SDS011;11588;51.178;4.852;2023-07-20T12:27:41;0.50;;;0.30;;
22843;SDS011;11588;51.178;4.852;2023-07-20T12:30:10;0.40;;;0.30;;
22843;SDS011;11588;51.178;4.852;2023-07-20T12:32:37;0.40;;;0.20;;
22843;SDS011;11588;51.178;4.852;2023-07-20T12:35:03;0.95;;;0.40;;
22843;SDS011;11588;51.178;4.852;2023-07-20T12:37:30;0.30;;;0.30;;
22843;SDS011;11588;51.178;4.852;2023-07-20T12:39:56;0.40;;;0.22;;
22843;SDS011;11588;51.178;4.852;2023-07-20T12:42:23;0.40;;;0.30;;
22843;SDS011;11588;51.178;4.852;2023-07-20T12:44:50;0.50;;;0.40;;
22843;SDS011;11588;51.178;4.852;2023-07-20T12:47:17;0.60;;;0.50;;
22843;SDS011;11588;51.178;4.852;2023-07-20T12:49:44;0.50;;;0.50;;
22843;SDS011;11588;51.178;4.852;2023-07-20T12:52:11;0.30;;;0.30;;
22843;SDS011;11588;51.178;4.852;2023-07-20T12:54:38;0.35;;;0.35;;
22843;SDS011;11588;51.178;4.852;2023-07-20T12:57:04;0.77;;;0.60;;
22843;SDS011;11588;51.178;4.852;2023-07-20T12:59:31;0.90;;;0.60;;
22843;SDS011;11588;51.178;4.852;2023-07-20T13:01:58;0.50;;;0.50;;
22843;SDS011;11588;51.178;4.852;2023-07-20T13:04:27;0.90;;;0.88;;
22843;SDS011;11588;51.178;4.852;2023-07-20T13:06:54;0.80;;;0.70;;
22843;SDS011;11588;51.178;4.852;2023-07-20T13:09:19;0.98;;;0.80;;
22843;SDS011;11588;51.178;4.852;2023-07-20T13:11:46;1.23;;;0.80;;
22843;SDS011;11588;51.178;4.852;2023-07-20T13:14:13;0.95;;;0.73;;
22843;SDS011;11588;51.178;4.852;2023-07-20T13:16:40;3.72;;;0.90;;
22843;SDS011;11588;51.178;4.852;2023-07-20T13:19:07;2.45;;;0.98;;
22843;SDS011;11588;51.178;4.852;2023-07-20T13:21:33;1.00;;;0.73;;
22843;SDS011;11588;51.178;4.852;2023-07-20T13:24:00;1.52;;;1.13;;
22843;SDS011;11588;51.178;4.852;2023-07-20T13:26:27;1.63;;;1.40;;
22843;SDS011;11588;51.178;4.852;2023-07-20T13:28:53;2.85;;;1.48;;
22843;SDS011;11588;51.178;4.852;2023-07-20T13:31:21;1.85;;;1.73;;
22843;SDS011;11588;51.178;4.852;2023-07-20T13:33:48;1.70;;;1.60;;
22843;SDS011;11588;51.178;4.852;2023-07-20T13:36:15;1.67;;;1.58;;
22843;SDS011;11588;51.178;4.852;2023-07-20T13:38:41;1.95;;;1.60;;
22843;SDS011;11588;51.178;4.852;2023-07-20T13:41:08;2.58;;;1.92;;
22843;SDS011;11588;51.178;4.852;2023-07-20T13:43:34;2.13;;;1.73;;
22843;SDS011;11588;51.178;4.852;2023-07-20T13:46:01;1.80;;;1.65;;
22843;SDS011;11588;51.178;4.852;2023-07-20T13:48:28;2.90;;;1.92;;
22843;SDS011;11588;51.178;4.852;2023-07-20T13:50:54;3.40;;;2.50;;
22843;SDS011;11588;51.178;4.852;2023-07-20T13:53:21;2.30;;;2.10;;
22843;SDS011;11588;51.178;4.852;2023-07-20T13:55:48;2.42;;;2.03;;
22843;SDS011;11588;51.178;4.852;2023-07-20T13:58:15;3.35;;;2.72;;
22843;SDS011;11588;51.178;4.852;2023-07-20T14:00:41;2.03;;;1.80;;
22843;SDS011;11588;51.178;4.852;2023-07-20T14:03:08;2.38;;;2.17;;
22843;SDS011;11588;51.178;4.852;2023-07-20T14:05:35;3.03;;;1.90;;
22843;SDS011;11588;51.178;4.852;2023-07-20T14:08:02;2.78;;;1.70;;
22843;SDS011;11588;51.178;4.852;2023-07-20T14:10:28;2.15;;;1.95;;
22843;SDS011;11588;51.178;4.852;2023-07-20T14:12:55;2.10;;;1.88;;
22843;SDS011;11588;51.178;4.852;2023-07-20T14:15:22;2.30;;;2.10;;
22843;SDS011;11588;51.178;4.852;2023-07-20T14:17:49;2.17;;;1.98;;
22843;SDS011;11588;51.178;4.852;2023-07-20T14:20:15;4.72;;;1.85;;
22843;SDS011;11588;51.178;4.852;2023-07-20T14:22:42;3.97;;;1.83;;
22843;SDS011;11588;51.178;4.852;2023-07-20T14:25:09;2.10;;;1.90;;
22843;SDS011;11588;51.178;4.852;2023-07-20T14:27:35;3.00;;;1.90;;
22843;SDS011;11588;51.178;4.852;2023-07-20T14:30:02;2.20;;;2.00;;
22843;SDS011;11588;51.178;4.852;2023-07-20T14:32:28;1.88;;;1.77;;
22843;SDS011;11588;51.178;4.852;2023-07-20T14:34:55;1.77;;;1.63;;
22843;SDS011;11588;51.178;4.852;2023-07-20T14:37:21;1.77;;;1.50;;
22843;SDS011;11588;51.178;4.852;2023-07-20T14:39:48;1.75;;;1.65;;
22843;SDS011;11588;51.178;4.852;2023-07-20T14:42:14;1.95;;;1.70;;
22843;SDS011;11588;51.178;4.852;2023-07-20T14:44:41;1.80;;;1.70;;
22843;SDS011;11588;51.178;4.852;2023-07-20T14:47:08;1.70;;;1.60;;
22843;SDS011;11588;51.178;4.852;2023-07-20T14:49:34;1.45;;;1.35;;
22843;SDS011;11588;51.178;4.852;2023-07-20T14:52:02;1.45;;;1.35;;
22843;SDS011;11588;51.178;4.852;2023-07-20T14:54:28;1.50;;;1.30;;
22843;SDS011;11588;51.178;4.852;2023-07-20T14:56:55;1.55;;;1.40;;
22843;SDS011;11588;51.178;4.852;2023-07-20T14:59:22;1.70;;;1.60;;
22843;SDS011;11588;51.178;4.852;2023-07-20T15:01:49;1.58;;;1.40;;
22843;SDS011;11588;51.178;4.852;2023-07-20T15:04:15;1.38;;;1.27;;
22843;SDS011;11588;51.178;4.852;2023-07-20T15:06:42;2.00;;;1.80;;
22843;SDS011;11588;51.178;4.852;2023-07-20T15:09:09;1.70;;;1.60;;
22843;SDS011;11588;51.178;4.852;2023-07-20T15:11:35;1.38;;;1.00;;
22843;SDS011;11588;51.178;4.852;2023-07-20T15:14:02;0.63;;;0.45;;
22843;SDS011;11588;51.178;4.852;2023-07-20T15:16:29;2.08;;;0.73;;
22843;SDS011;11588;51.178;4.852;2023-07-20T15:18:56;0.88;;;0.55;;
22843;SDS011;11588;51.178;4.852;2023-07-20T15:21:22;1.48;;;0.43;;
22843;SDS011;11588;51.178;4.852;2023-07-20T15:23:50;1.05;;;0.60;;